createdAt,value
2022-12-17T00:01:49.144Z,16.30
2022-12-17T00:04:34.632Z,12.02
2022-12-17T00:07:20.654Z,8.30
2022-12-17T00:10:06.311Z,9.95
2022-12-17T00:12:51.821Z,8.00
2022-12-17T00:15:37.567Z,7.50
2022-12-17T00:18:26.945Z,8.75
2022-12-17T00:21:17.929Z,6.38
2022-12-17T00:24:04.713Z,6.97
2022-12-17T00:26:51.169Z,9.55
2022-12-17T00:29:37.810Z,7.25
2022-12-17T00:32:23.704Z,8.00
2022-12-17T00:35:09.108Z,7.50
2022-12-17T00:37:55.395Z,5.63
2022-12-17T00:40:42.002Z,4.32
2022-12-17T00:43:30.150Z,5.30
2022-12-17T00:46:16.969Z,5.45
2022-12-17T00:49:02.991Z,4.35
2022-12-17T00:51:48.511Z,3.63
2022-12-17T00:54:44.968Z,4.93
2022-12-17T00:57:30.634Z,5.80
2022-12-17T01:00:15.985Z,5.32
2022-12-17T01:03:01.383Z,4.68
2022-12-17T01:05:47.106Z,4.57
2022-12-17T01:08:33.675Z,2.88
2022-12-17T01:11:24.473Z,3.70
2022-12-17T01:14:10.160Z,3.40
2022-12-17T01:16:56.323Z,4.45
2022-12-17T01:19:42.125Z,4.35
2022-12-17T01:22:27.586Z,4.50
2022-12-17T01:25:13.132Z,4.57
2022-12-17T01:27:58.767Z,5.53
2022-12-17T01:30:44.037Z,2.40
2022-12-17T01:33:31.479Z,2.70
2022-12-17T01:36:17.465Z,2.75
2022-12-17T01:39:03.346Z,2.70
2022-12-17T01:41:48.956Z,7.30
2022-12-17T01:45:02.620Z,7.05
2022-12-17T01:48:08.208Z,4.57
2022-12-17T01:50:57.891Z,3.90
2022-12-17T01:53:47.576Z,3.15
2022-12-17T01:56:34.041Z,2.72
2022-12-17T01:59:20.090Z,2.05
2022-12-17T02:02:06.434Z,2.47
2022-12-17T02:04:52.181Z,2.65
2022-12-17T02:07:58.620Z,2.97
2022-12-17T02:11:03.966Z,2.63
2022-12-17T02:13:54.627Z,1.67
2022-12-17T02:16:57.504Z,2.60
2022-12-17T02:20:13.173Z,2.58
2022-12-17T02:23:19.003Z,2.40
2022-12-17T02:26:18.533Z,2.58
2022-12-17T02:29:07.577Z,2.28
2022-12-17T02:31:56.497Z,2.42
2022-12-17T02:34:42.498Z,2.15
2022-12-17T02:37:27.802Z,2.40
2022-12-17T02:40:13.219Z,1.90
2022-12-17T02:43:00.362Z,3.58
2022-12-17T02:45:45.791Z,2.72
2022-12-17T02:48:31.976Z,2.75
2022-12-17T02:51:18.485Z,3.28
2022-12-17T02:54:04.949Z,3.70
2022-12-17T02:56:50.596Z,3.40
2022-12-17T02:59:35.988Z,3.38
2022-12-17T03:02:22.030Z,3.67
2022-12-17T03:05:35.478Z,3.25
2022-12-17T03:08:13.075Z,2.95
2022-12-17T03:10:58.575Z,2.80
2022-12-17T03:13:47.490Z,4.75
2022-12-17T03:16:38.027Z,3.58
2022-12-17T03:19:24.314Z,4.75
2022-12-17T03:22:09.532Z,4.13
2022-12-17T03:24:55.217Z,4.00
2022-12-17T03:27:43.858Z,3.38
2022-12-17T03:30:33.314Z,3.97
2022-12-17T03:33:21.156Z,4.68
2022-12-17T03:36:06.865Z,5.85
2022-12-17T03:38:52.477Z,5.53
2022-12-17T03:41:38.438Z,4.72
2022-12-17T03:44:23.806Z,4.03
2022-12-17T03:47:09.287Z,3.85
2022-12-17T03:49:55.002Z,6.03
2022-12-17T03:52:40.884Z,5.00
2022-12-17T03:55:26.695Z,5.72
2022-12-17T03:58:12.742Z,5.20
2022-12-17T04:00:58.303Z,4.65
2022-12-17T04:03:43.914Z,4.65
2022-12-17T04:06:29.486Z,5.60
2022-12-17T04:09:15.194Z,5.95
2022-12-17T04:12:00.710Z,7.10
2022-12-17T04:14:46.065Z,7.15
2022-12-17T04:17:31.997Z,6.72
2022-12-17T04:20:17.615Z,7.28
2022-12-17T04:23:03.822Z,7.38
2022-12-17T04:25:49.459Z,8.35
2022-12-17T04:28:34.745Z,7.45
2022-12-17T04:31:20.360Z,10.15
2022-12-17T04:34:06.108Z,8.80
2022-12-17T04:36:51.478Z,11.60
2022-12-17T04:39:37.053Z,10.45
2022-12-17T04:42:22.645Z,12.55
2022-12-17T04:45:08.159Z,11.07
2022-12-17T04:47:53.599Z,12.75
2022-12-17T04:50:38.760Z,13.88
2022-12-17T04:53:25.308Z,10.27
2022-12-17T04:56:13.371Z,11.27
2022-12-17T04:58:59.471Z,13.25
2022-12-17T05:01:45.283Z,11.43
2022-12-17T05:04:30.705Z,10.10
2022-12-17T05:07:16.176Z,10.77
2022-12-17T05:10:01.766Z,10.20
2022-12-17T05:12:47.776Z,13.50
2022-12-17T05:15:33.539Z,12.02
2022-12-17T05:18:26.416Z,20.70
2022-12-17T05:21:30.566Z,14.48
2022-12-17T05:24:18.689Z,13.55
2022-12-17T05:27:04.295Z,14.73
2022-12-17T05:29:49.699Z,13.77
2022-12-17T05:32:35.045Z,13.63
2022-12-17T05:35:20.623Z,13.85
2022-12-17T05:38:06.605Z,12.15
2022-12-17T05:40:52.353Z,16.55
2022-12-17T05:43:38.330Z,34.88
2022-12-17T05:46:24.928Z,14.57
2022-12-17T05:49:10.367Z,14.98
2022-12-17T05:51:55.992Z,23.90
2022-12-17T05:54:41.704Z,29.08
2022-12-17T05:57:27.488Z,15.40
2022-12-17T06:00:12.680Z,16.30
2022-12-17T06:02:58.838Z,19.13
2022-12-17T06:05:44.089Z,16.38
2022-12-17T06:08:29.531Z,15.98
2022-12-17T06:11:18.321Z,16.92
2022-12-17T06:14:03.703Z,20.67
2022-12-17T06:16:49.245Z,17.30
2022-12-17T06:19:34.603Z,16.02
2022-12-17T06:22:20.457Z,17.75
2022-12-17T06:25:06.118Z,21.58
2022-12-17T06:27:51.826Z,18.10
2022-12-17T06:30:37.382Z,25.52
2022-12-17T06:33:28.711Z,16.17
2022-12-17T06:36:22.173Z,16.17
2022-12-17T06:39:08.958Z,17.13
2022-12-17T06:42:00.495Z,16.90
2022-12-17T06:44:49.797Z,17.70
2022-12-17T06:47:35.123Z,18.42
2022-12-17T06:50:21.303Z,19.40
2022-12-17T06:53:06.757Z,21.00
2022-12-17T06:55:52.202Z,20.50
2022-12-17T06:58:37.725Z,19.55
2022-12-17T07:01:23.809Z,19.23
2022-12-17T07:04:09.613Z,17.75
2022-12-17T07:06:55.489Z,14.35
2022-12-17T07:09:41.209Z,18.60
2022-12-17T07:12:26.571Z,18.98
2022-12-17T07:15:13.270Z,19.20
2022-12-17T07:17:59.133Z,19.75
2022-12-17T07:20:44.320Z,19.52
2022-12-17T07:23:30.108Z,14.60
2022-12-17T07:26:16.475Z,16.67
2022-12-17T07:29:01.716Z,18.10
2022-12-17T07:31:47.659Z,21.25
2022-12-17T07:34:33.029Z,21.65
2022-12-17T07:37:20.647Z,20.27
2022-12-17T07:40:06.088Z,18.42
2022-12-17T07:42:51.608Z,20.73
2022-12-17T07:45:37.326Z,21.45
2022-12-17T07:48:22.781Z,19.65
2022-12-17T07:51:08.865Z,36.35
2022-12-17T07:53:54.935Z,25.48
2022-12-17T07:56:40.590Z,30.35
2022-12-17T07:59:26.178Z,19.73
2022-12-17T08:02:11.894Z,24.17
2022-12-17T08:04:57.721Z,21.58
2022-12-17T08:07:44.217Z,37.33
2022-12-17T08:10:29.828Z,81.38
2022-12-17T08:13:17.180Z,39.83
2022-12-17T08:16:02.689Z,73.72
2022-12-17T08:18:48.257Z,23.25
2022-12-17T08:21:33.530Z,20.85
2022-12-17T08:24:19.012Z,32.67
2022-12-17T08:27:04.553Z,19.90
2022-12-17T08:29:50.075Z,19.80
2022-12-17T08:32:35.485Z,16.90
2022-12-17T08:35:21.028Z,21.20
2022-12-17T08:38:06.645Z,17.63
2022-12-17T08:40:51.838Z,21.58
2022-12-17T08:43:38.112Z,22.17
2022-12-17T08:46:23.702Z,26.60
2022-12-17T08:49:09.649Z,32.70
2022-12-17T08:51:55.397Z,24.33
2022-12-17T08:54:40.663Z,32.20
2022-12-17T08:57:31.991Z,28.92
2022-12-17T09:00:18.606Z,26.60
2022-12-17T09:03:04.942Z,39.80
2022-12-17T09:05:50.462Z,41.17
2022-12-17T09:08:36.253Z,33.35
2022-12-17T09:11:22.100Z,24.83
2022-12-17T09:14:09.983Z,24.50
2022-12-17T09:16:58.285Z,19.58
2022-12-17T09:19:49.827Z,26.52
2022-12-17T09:22:38.047Z,32.47
2022-12-17T09:25:24.355Z,26.30
2022-12-17T09:28:09.915Z,24.50
2022-12-17T09:30:55.882Z,49.35
2022-12-17T09:33:41.446Z,34.95
2022-12-17T09:36:27.359Z,38.08
2022-12-17T09:39:15.131Z,36.40
2022-12-17T09:42:11.533Z,34.25
2022-12-17T09:45:22.074Z,36.55
2022-12-17T09:48:16.974Z,43.97
2022-12-17T09:51:04.919Z,33.22
2022-12-17T09:54:03.794Z,24.17
2022-12-17T09:57:06.873Z,32.08
2022-12-17T09:59:56.883Z,43.75
2022-12-17T10:02:57.391Z,39.20
2022-12-17T10:05:56.922Z,29.77
2022-12-17T10:08:49.712Z,27.45
2022-12-17T10:11:56.206Z,35.78
2022-12-17T10:14:53.814Z,32.65
2022-12-17T10:17:41.421Z,31.25
2022-12-17T10:20:39.576Z,33.42
2022-12-17T10:23:24.966Z,27.20
2022-12-17T10:26:13.105Z,30.05
2022-12-17T10:28:59.625Z,40.75
2022-12-17T10:31:48.809Z,31.80
2022-12-17T10:34:37.346Z,43.15
2022-12-17T10:37:24.925Z,38.58
2022-12-17T10:40:16.712Z,32.67
2022-12-17T10:43:03.722Z,40.20
2022-12-17T10:45:54.627Z,29.35
2022-12-17T10:48:47.183Z,32.65
2022-12-17T10:51:39.012Z,27.95
2022-12-17T10:54:48.726Z,46.92
2022-12-17T10:57:37.961Z,37.75
2022-12-17T11:00:49.717Z,24.50
2022-12-17T11:04:09.621Z,30.52
2022-12-17T11:07:31.177Z,30.52
2022-12-17T11:10:36.066Z,29.55
2022-12-17T11:13:34.598Z,28.90
2022-12-17T11:16:22.644Z,24.77
2022-12-17T11:19:17.348Z,24.65
2022-12-17T11:22:07.073Z,21.33
2022-12-17T11:25:13.634Z,22.92
2022-12-17T11:28:04.668Z,17.23
2022-12-17T11:31:04.217Z,23.45
2022-12-17T11:34:33.528Z,20.88
2022-12-17T11:37:33.938Z,22.17
2022-12-17T11:40:41.810Z,20.23
2022-12-17T11:43:52.489Z,21.50
2022-12-17T11:47:06.304Z,19.33
2022-12-17T11:50:19.112Z,22.60
2022-12-17T11:53:10.431Z,41.28
2022-12-17T11:56:09.037Z,23.27
2022-12-17T11:59:03.227Z,18.52
2022-12-17T12:02:07.473Z,19.67
2022-12-17T12:05:16.875Z,18.27
2022-12-17T12:08:36.646Z,16.25
2022-12-17T12:11:50.386Z,15.20
2022-12-17T12:14:47.971Z,13.57
2022-12-17T12:17:48.805Z,13.75
2022-12-17T12:20:59.095Z,15.68
2022-12-17T12:24:43.057Z,22.23
2022-12-17T12:27:48.333Z,22.30
2022-12-17T12:30:40.075Z,27.75
2022-12-17T12:34:08.873Z,22.88
2022-12-17T12:36:56.481Z,21.77
2022-12-17T12:40:05.693Z,20.10
2022-12-17T12:43:06.931Z,27.45
2022-12-17T12:46:27.598Z,24.17
2022-12-17T12:49:54.142Z,33.20
2022-12-17T12:52:43.762Z,32.17
2022-12-17T12:55:29.689Z,28.75
2022-12-17T12:58:33.528Z,23.60
2022-12-17T13:01:19.524Z,20.20
2022-12-17T13:04:05.232Z,26.55
2022-12-17T13:06:55.678Z,32.28
2022-12-17T13:09:34.211Z,25.70
2022-12-17T13:12:05.376Z,26.33
2022-12-17T13:14:46.800Z,22.30
2022-12-17T13:17:17.088Z,29.90
2022-12-17T13:19:57.928Z,23.10
2022-12-17T13:22:24.927Z,29.13
2022-12-17T13:25:14.653Z,26.40
2022-12-17T13:27:42.902Z,35.00
2022-12-17T13:30:22.633Z,26.80
2022-12-17T13:33:20.531Z,24.52
2022-12-17T13:36:03.006Z,32.25
2022-12-17T13:38:51.522Z,38.13
2022-12-17T13:42:12.784Z,23.13
2022-12-17T13:44:46.221Z,24.55
2022-12-17T13:47:35.308Z,25.20
2022-12-17T13:50:35.552Z,22.10
2022-12-17T13:53:23.639Z,25.95
2022-12-17T13:55:56.418Z,23.08
2022-12-17T13:58:30.552Z,27.17
2022-12-17T14:01:09.421Z,24.23
2022-12-17T14:04:04.703Z,27.50
2022-12-17T14:06:28.920Z,19.27
2022-12-17T14:08:57.327Z,23.45
2022-12-17T14:11:43.276Z,20.98
2022-12-17T14:14:24.207Z,20.05
2022-12-17T14:16:51.255Z,19.63
2022-12-17T14:19:21.896Z,23.55
2022-12-17T14:21:49.077Z,24.98
2022-12-17T14:24:19.045Z,22.02
2022-12-17T14:26:56.370Z,21.02
2022-12-17T14:29:25.645Z,19.38
2022-12-17T14:31:57.239Z,32.00
2022-12-17T14:34:25.050Z,38.67
2022-12-17T14:36:58.099Z,51.67
2022-12-17T14:39:33.104Z,29.27
2022-12-17T14:42:25.980Z,24.35
2022-12-17T14:44:57.860Z,26.17
2022-12-17T14:47:27.811Z,29.33
2022-12-17T14:50:04.767Z,20.40
2022-12-17T14:52:34.824Z,26.77
2022-12-17T14:55:02.470Z,20.60
2022-12-17T14:57:34.629Z,17.92
2022-12-17T15:00:01.851Z,20.05
2022-12-17T15:02:36.665Z,23.85
2022-12-17T15:05:04.205Z,39.38
2022-12-17T15:07:32.257Z,22.77
2022-12-17T15:10:13.082Z,21.73
2022-12-17T15:12:42.833Z,19.88
2022-12-17T15:15:15.126Z,19.42
2022-12-17T15:17:42.997Z,19.15
2022-12-17T15:20:19.931Z,29.55
2022-12-17T15:22:55.313Z,22.20
2022-12-17T15:25:24.845Z,24.05
2022-12-17T15:27:51.835Z,29.80
2022-12-17T15:30:21.852Z,34.72
2022-12-17T15:32:49.210Z,29.85
2022-12-17T15:35:19.306Z,28.73
2022-12-17T15:37:46.243Z,25.85
2022-12-17T15:40:13.056Z,26.95
2022-12-17T15:43:04.450Z,26.98
2022-12-17T15:45:33.191Z,41.30
2022-12-17T15:48:00.130Z,27.92
2022-12-17T15:50:26.980Z,35.28
2022-12-17T15:52:53.876Z,57.45
2022-12-17T15:55:21.378Z,43.90
2022-12-17T15:57:48.563Z,35.08
2022-12-17T16:00:15.985Z,33.03
2022-12-17T16:02:43.447Z,30.17
2022-12-17T16:05:10.388Z,26.77
2022-12-17T16:07:38.023Z,26.85
2022-12-17T16:10:08.531Z,28.77
2022-12-17T16:12:35.809Z,22.73
2022-12-17T16:15:03.839Z,20.75
2022-12-17T16:17:30.627Z,26.80
2022-12-17T16:19:58.090Z,23.67
2022-12-17T16:22:24.901Z,26.08
2022-12-17T16:24:52.671Z,25.45
2022-12-17T16:27:19.989Z,24.60
2022-12-17T16:29:48.174Z,20.33
2022-12-17T16:32:16.787Z,26.90
2022-12-17T16:34:44.363Z,31.27
2022-12-17T16:37:11.767Z,24.70
2022-12-17T16:39:38.712Z,26.73
2022-12-17T16:42:05.606Z,25.67
2022-12-17T16:44:32.975Z,23.27
2022-12-17T16:47:00.279Z,25.27
2022-12-17T16:49:27.328Z,24.92
2022-12-17T16:51:55.459Z,26.67
2022-12-17T16:54:26.539Z,33.45
2022-12-17T16:56:54.344Z,25.70
2022-12-17T16:59:22.125Z,24.27
2022-12-17T17:01:51.292Z,26.90
2022-12-17T17:04:21.228Z,25.23
2022-12-17T17:06:56.501Z,29.85
2022-12-17T17:09:25.222Z,30.00
2022-12-17T17:11:56.463Z,31.70
2022-12-17T17:14:23.997Z,32.80
2022-12-17T17:16:52.047Z,29.88
2022-12-17T17:19:21.627Z,23.50
2022-12-17T17:21:52.504Z,29.08
2022-12-17T17:24:25.399Z,24.75
2022-12-17T17:26:53.399Z,24.15
2022-12-17T17:29:20.322Z,30.73
2022-12-17T17:34:34.641Z,30.80
2022-12-17T17:37:01.401Z,27.27
2022-12-17T17:39:31.822Z,28.65
2022-12-17T17:41:58.827Z,35.80
2022-12-17T17:44:25.612Z,29.67
2022-12-17T17:46:52.507Z,22.38
2022-12-17T17:49:20.198Z,25.92
2022-12-17T17:54:33.704Z,33.22
2022-12-17T17:57:01.069Z,50.72
2022-12-17T17:59:33.414Z,39.80
2022-12-17T18:02:02.424Z,36.17
2022-12-17T18:04:29.637Z,27.10
2022-12-17T18:09:43.705Z,26.25
2022-12-17T18:12:28.943Z,23.80
2022-12-17T18:17:43.043Z,31.98
2022-12-17T18:20:10.668Z,27.85
2022-12-17T18:22:37.889Z,29.13
2022-12-17T18:25:05.522Z,31.40
2022-12-17T18:27:32.403Z,31.00
2022-12-17T18:29:59.264Z,25.80
2022-12-17T18:32:26.480Z,27.92
2022-12-17T18:34:53.766Z,26.63
2022-12-17T18:37:20.661Z,34.88
2022-12-17T18:39:49.323Z,32.13
2022-12-17T18:42:34.636Z,38.53
2022-12-17T18:45:01.570Z,36.42
2022-12-17T18:47:28.846Z,34.88
2022-12-17T18:49:55.997Z,26.50
2022-12-17T18:52:24.963Z,25.23
2022-12-17T18:54:51.818Z,32.28
2022-12-17T18:57:19.107Z,33.92
2022-12-17T18:59:45.936Z,48.97
2022-12-17T19:02:14.461Z,27.42
2022-12-17T19:04:42.055Z,23.67
2022-12-17T19:07:09.343Z,23.92
2022-12-17T19:09:36.916Z,26.67
2022-12-17T19:12:05.575Z,31.40
2022-12-17T19:14:32.400Z,25.13
2022-12-17T19:16:59.991Z,26.40
2022-12-17T19:19:27.611Z,27.83
2022-12-17T19:21:55.247Z,22.58
2022-12-17T19:24:22.973Z,22.58
2022-12-17T19:26:50.589Z,46.40
2022-12-17T19:29:19.023Z,40.20
2022-12-17T19:31:46.111Z,34.67
2022-12-17T19:34:14.812Z,37.05
2022-12-17T19:36:42.462Z,43.63
2022-12-17T19:39:12.705Z,37.03
2022-12-17T19:41:39.951Z,36.38
2022-12-17T19:44:10.904Z,37.90
2022-12-17T19:46:38.147Z,35.85
2022-12-17T19:49:05.989Z,46.72
2022-12-17T19:51:33.290Z,41.03
2022-12-17T19:54:08.132Z,34.75
2022-12-17T19:56:36.679Z,39.83
2022-12-17T19:59:07.465Z,34.38
2022-12-17T20:01:36.930Z,38.05
2022-12-17T20:04:05.019Z,40.10
2022-12-17T20:06:33.931Z,82.13
2022-12-17T20:09:02.385Z,50.95
2022-12-17T20:11:35.787Z,51.20
2022-12-17T20:14:26.225Z,47.50
2022-12-17T20:16:57.611Z,43.10
2022-12-17T20:19:32.612Z,42.00
2022-12-17T20:22:01.549Z,49.63
2022-12-17T20:24:31.439Z,48.97
2022-12-17T20:26:59.558Z,60.83
2022-12-17T20:29:27.307Z,67.72
2022-12-17T20:31:54.543Z,74.75
2022-12-17T20:34:21.594Z,73.97
2022-12-17T20:36:49.047Z,44.05
2022-12-17T20:39:16.090Z,44.25
2022-12-17T20:41:44.333Z,56.53
2022-12-17T20:44:14.507Z,56.10
2022-12-17T20:46:42.717Z,51.03
2022-12-17T20:49:13.052Z,35.92
2022-12-17T20:51:40.119Z,33.70
2022-12-17T20:54:11.324Z,33.00
2022-12-17T20:56:39.889Z,32.65
2022-12-17T21:23:55.192Z,38.47
2022-12-17T22:24:36.257Z,30.20
2022-12-17T22:27:04.035Z,31.45
2022-12-17T22:29:52.486Z,29.63
2022-12-17T22:32:50.803Z,31.58
2022-12-17T22:40:03.252Z,33.42
2022-12-17T22:44:29.565Z,31.75
2022-12-17T22:44:40.882Z,30.40
2022-12-17T22:46:19.839Z,33.22
2022-12-17T22:48:49.343Z,29.08
2022-12-17T22:51:32.590Z,33.45
2022-12-17T22:54:09.117Z,31.60
2022-12-17T22:57:35.231Z,26.33
2022-12-17T22:59:29.696Z,32.78
2022-12-17T23:01:56.679Z,29.63
2022-12-17T23:04:23.692Z,27.77
2022-12-17T23:09:25.915Z,29.25
2022-12-17T23:11:53.157Z,27.88
2022-12-17T23:14:20.904Z,29.40
2022-12-17T23:16:48.668Z,29.02
2022-12-17T23:19:15.675Z,31.45
2022-12-17T23:21:45.424Z,35.60
2022-12-17T23:24:13.146Z,36.00
2022-12-17T23:26:40.768Z,37.22
2022-12-17T23:29:10.902Z,31.98
2022-12-17T23:31:48.607Z,36.50
2022-12-17T23:34:15.722Z,32.78
2022-12-17T23:36:45.619Z,31.60
2022-12-17T23:39:12.560Z,40.00
2022-12-17T23:41:42.360Z,33.40
2022-12-17T23:44:14.555Z,30.88
2022-12-17T23:46:44.916Z,30.55
2022-12-17T23:49:14.582Z,30.20
2022-12-17T23:51:51.111Z,30.13
2022-12-17T23:54:18.300Z,32.67
2022-12-17T23:56:48.761Z,32.35
